Time;durP1;ratioP1;P1;durP2;ratioP2;P2;SDS_P1;SDS_P2;PMS_P1;PMS_P2;Temp;Humidity;BMP_temperature;BMP_pressure;BME280_temperature;BME280_humidity;BME280_pressure;Samples;Min_cycle;Max_cycle;Signal;HPM_P1;HPM_P2
2023/03/13 00:02:19;;;;;;;11.73;5.45;;;;;;;6.84;100.00;97629.03;5053357;28;20084;-84
2023/03/13 00:04:46;;;;;;;11.20;5.38;;;;;;;6.96;100.00;97623.91;5033918;28;20053;-85
2023/03/13 00:07:13;;;;;;;11.07;4.78;;;;;;;7.15;100.00;97652.84;5024797;28;20049;-84
2023/03/13 00:09:40;;;;;;;10.48;4.53;;;;;;;7.09;100.00;97627.25;5035219;28;20049;-85
2023/03/13 00:12:06;;;;;;;10.88;5.10;;;;;;;7.09;100.00;97619.47;5044706;28;20048;-84
2023/03/13 00:14:33;;;;;;;10.85;4.72;;;;;;;7.08;100.00;97617.78;5053203;28;20049;-84
2023/03/13 00:17:01;;;;;;;11.77;5.68;;;;;;;7.11;100.00;97625.38;5031465;28;20049;-84
2023/03/13 00:19:28;;;;;;;11.23;4.90;;;;;;;7.10;100.00;97613.31;5042955;28;20458;-84
2023/03/13 00:21:55;;;;;;;12.35;5.68;;;;;;;7.08;100.00;97588.34;5035598;28;20045;-84
2023/03/13 00:24:22;;;;;;;12.25;5.38;;;;;;;7.07;100.00;97582.31;5032330;28;20419;-84
2023/03/13 00:26:48;;;;;;;15.23;5.47;;;;;;;7.23;100.00;97595.84;5052080;28;20052;-84
2023/03/13 00:29:15;;;;;;;11.63;5.95;;;;;;;7.11;100.00;97560.34;5046597;28;20498;-83
2023/03/13 00:31:42;;;;;;;9.85;4.40;;;;;;;7.02;100.00;97535.81;5038279;28;20846;-84
2023/03/13 00:34:09;;;;;;;13.30;5.60;;;;;;;7.28;100.00;97584.25;5018952;28;20045;-83
2023/03/13 00:36:36;;;;;;;13.30;5.22;;;;;;;7.23;100.00;97556.00;5028770;28;20490;-83
2023/03/13 00:39:06;;;;;;;11.35;5.00;;;;;;;7.06;100.00;97533.81;5052456;28;20772;-84
2023/03/13 00:41:33;;;;;;;11.45;5.25;;;;;;;7.21;100.00;97576.94;5051256;28;20048;-85
2023/03/13 00:44:00;;;;;;;11.82;6.15;;;;;;;7.10;100.00;97550.88;5034013;28;20059;-85
2023/03/13 00:46:28;;;;;;;11.25;4.97;;;;;;;6.99;100.00;97517.88;5052730;28;20056;-86
2023/03/13 00:48:56;;;;;;;12.85;6.53;;;;;;;7.19;100.00;97555.41;5033125;28;20049;-86
2023/03/13 00:51:25;;;;;;;12.30;6.00;;;;;;;7.27;100.00;97556.59;5036149;28;20044;-87
2023/03/13 00:53:53;;;;;;;14.68;6.88;;;;;;;7.25;100.00;97577.53;5021595;28;20046;-87
2023/03/13 00:56:21;;;;;;;13.38;5.85;;;;;;;7.17;100.00;97559.91;5028206;28;20049;-88
2023/03/13 00:58:49;;;;;;;15.98;6.80;;;;;;;7.29;100.00;97578.13;5030977;28;20057;-86
2023/03/13 01:01:25;;;;;;;13.57;6.68;;;;;;;7.28;100.00;97566.91;5024209;28;20056;-88
2023/03/13 01:03:54;;;;;;;13.52;7.10;;;;;;;6.94;100.00;97530.38;5035651;28;20060;-87
2023/03/13 01:06:25;;;;;;;16.75;7.95;;;;;;;6.94;100.00;97532.13;5036198;28;20055;-87
2023/03/13 01:08:52;;;;;;;16.98;8.15;;;;;;;7.14;100.00;97560.13;5036051;28;20080;-88
2023/03/13 01:11:22;;;;;;;15.40;7.35;;;;;;;7.08;100.00;97544.94;5035481;28;20049;-88
2023/03/13 01:13:52;;;;;;;13.45;7.22;;;;;;;6.78;100.00;97496.03;5022481;28;20052;-89
2023/03/13 01:16:20;;;;;;;14.85;7.30;;;;;;;6.95;100.00;97506.00;5016787;28;20468;-88
2023/03/13 01:18:51;;;;;;;12.75;6.57;;;;;;;6.95;100.00;97492.19;5017966;28;20050;-88
2023/03/13 01:21:19;;;;;;;13.15;6.53;;;;;;;7.05;100.00;97511.38;5052231;28;20053;-90
2023/03/13 01:23:47;;;;;;;14.10;6.65;;;;;;;7.03;100.00;97514.09;5018343;28;20045;-87
2023/03/13 01:26:14;;;;;;;12.70;6.22;;;;;;;6.88;100.00;97480.59;5031175;28;20052;-87
2023/03/13 01:28:41;;;;;;;14.73;7.28;;;;;;;6.99;100.00;97491.84;5019150;28;20488;-88
2023/03/13 01:31:17;;;;;;;11.85;6.32;;;;;;;6.93;100.00;97465.47;5024777;28;20056;-88
2023/03/13 01:33:46;;;;;;;12.02;6.05;;;;;;;6.70;100.00;97423.81;5019523;28;20053;-88
2023/03/13 01:36:13;;;;;;;12.18;5.60;;;;;;;7.15;100.00;97475.06;5042245;28;20048;-88
2023/03/13 01:38:41;;;;;;;12.35;5.97;;;;;;;7.04;100.00;97455.06;5046869;28;20487;-88
2023/03/13 01:41:10;;;;;;;10.50;4.93;;;;;;;6.85;100.00;97408.81;5052159;28;20098;-88
2023/03/13 01:43:37;;;;;;;11.95;4.90;;;;;;;6.80;100.00;97390.97;5035681;28;20049;-88
2023/03/13 01:46:18;;;;;;;12.07;6.40;;;;;;;6.99;100.00;97421.63;5021640;28;20049;-88
2023/03/13 01:48:50;;;;;;;15.57;6.35;;;;;;;7.10;100.00;97430.38;5051485;28;20056;-87
2023/03/13 01:51:32;;;;;;;14.05;7.65;;;;;;;6.65;100.00;97353.13;5032199;28;20064;-88
2023/03/13 01:54:02;;;;;;;12.20;6.25;;;;;;;7.09;100.00;97411.34;5030185;28;20071;-88
2023/03/13 01:56:58;;;;;;;12.75;6.60;;;;;;;6.96;100.00;97379.41;5034616;28;20056;-88
2023/03/13 01:59:30;;;;;;;14.07;6.93;;;;;;;6.93;100.00;97357.06;5031298;28;20084;-87
2023/03/13 02:02:00;;;;;;;17.25;6.57;;;;;;;6.69;100.00;97318.13;5033863;28;20469;-89
2023/03/13 02:04:30;;;;;;;13.90;6.15;;;;;;;7.07;100.00;97370.78;5047386;28;20044;-88
2023/03/13 02:07:02;;;;;;;15.40;6.90;;;;;;;6.87;100.00;97334.13;5034344;28;20056;-88
2023/03/13 02:09:31;;;;;;;17.17;6.97;;;;;;;7.00;100.00;97334.00;5034752;28;20068;-87
2023/03/13 02:12:21;;;;;;;16.00;6.70;;;;;;;7.17;100.00;97354.34;5029018;28;20418;-89
2023/03/13 02:14:50;;;;;;;13.23;5.97;;;;;;;6.76;100.00;97280.31;5033251;28;20483;-88
2023/03/13 02:17:17;;;;;;;11.65;5.50;;;;;;;7.15;100.00;97331.97;5027835;28;20053;-88
2023/03/13 02:19:47;;;;;;;15.80;6.95;;;;;;;6.73;100.00;97264.97;5028080;28;20123;-87
2023/03/13 02:22:19;;;;;;;11.90;5.95;;;;;;;7.16;100.00;97329.25;5017894;28;20069;-88
2023/03/13 02:25:09;;;;;;;13.50;6.63;;;;;;;6.95;100.00;97297.13;5044498;28;20053;-88
2023/03/13 02:27:36;;;;;;;14.13;6.25;;;;;;;6.76;100.00;97258.69;5027013;28;20468;-89
2023/03/13 02:30:04;;;;;;;11.65;4.93;;;;;;;6.97;100.00;97290.84;5026286;28;20494;-89
2023/03/13 02:32:31;;;;;;;10.73;4.85;;;;;;;6.92;100.00;97285.16;5016235;28;20054;-89
2023/03/13 02:35:05;;;;;;;10.48;4.00;;;;;;;6.96;100.00;97296.19;5032333;28;20128;-90
2023/03/13 02:37:32;;;;;;;9.25;4.20;;;;;;;6.81;100.00;97270.41;5037683;28;20494;-90
2023/03/13 02:40:04;;;;;;;13.68;6.10;;;;;;;6.74;100.00;97261.41;5037779;28;20403;-89
2023/03/13 02:42:31;;;;;;;9.98;4.45;;;;;;;6.20;100.00;97158.19;5038094;28;20053;-90
2023/03/13 02:44:58;;;;;;;10.13;3.95;;;;;;;6.46;100.00;97203.78;5027678;28;20132;-89
2023/03/13 02:47:25;;;;;;;10.10;4.55;;;;;;;6.33;100.00;97173.66;5028888;28;20049;-89
2023/03/13 02:49:51;;;;;;;8.57;3.63;;;;;;;6.30;100.00;97161.72;5019029;28;20057;-90
2023/03/13 02:52:37;;;;;;;8.93;3.55;;;;;;;6.41;100.00;97177.31;5050850;28;20052;-91
2023/03/13 02:55:09;;;;;;;9.27;3.88;;;;;;;6.36;100.00;97178.63;5029290;28;20057;-91
2023/03/13 02:57:36;;;;;;;10.25;4.18;;;;;;;6.35;100.00;97166.56;5035961;28;20053;-91
2023/03/13 03:00:05;;;;;;;9.30;3.92;;;;;;;6.59;100.00;97203.66;5037192;28;20050;-91
2023/03/13 03:02:32;;;;;;;9.68;4.15;;;;;;;6.41;100.00;97184.28;5030076;28;20067;-90
2023/03/13 03:04:59;;;;;;;8.93;3.97;;;;;;;6.57;100.00;97202.94;5056162;28;20060;-90
2023/03/13 03:07:26;;;;;;;11.00;5.25;;;;;;;6.43;100.00;97159.03;5056057;28;20059;-90
2023/03/13 03:09:52;;;;;;;10.50;4.28;;;;;;;6.36;100.00;97150.06;5035531;28;20057;-90
2023/03/13 03:12:19;;;;;;;9.38;4.07;;;;;;;6.29;100.00;97125.50;5037989;28;20057;-90
2023/03/13 03:14:46;;;;;;;8.98;3.58;;;;;;;6.28;100.00;97111.66;5041443;28;20049;-91
2023/03/13 03:17:13;;;;;;;9.48;3.85;;;;;;;6.38;100.00;97117.78;5038274;28;20053;-91
2023/03/13 03:19:39;;;;;;;7.88;3.40;;;;;;;6.40;100.00;97102.09;5038407;28;20053;-90
2023/03/13 03:22:06;;;;;;;6.95;3.05;;;;;;;6.31;100.00;97072.44;5027603;28;20041;-90
2023/03/13 03:24:33;;;;;;;7.75;3.22;;;;;;;6.54;100.00;97120.00;5028774;28;20380;-90
2023/03/13 03:27:00;;;;;;;9.93;3.70;;;;;;;6.45;100.00;97095.56;5031330;28;20038;-90
2023/03/13 03:29:26;;;;;;;6.47;2.53;;;;;;;6.79;100.00;97124.09;5023379;28;20056;-90
2023/03/13 03:31:53;;;;;;;9.02;3.70;;;;;;;6.35;100.00;97052.25;5028759;28;20442;-90
2023/03/13 03:34:21;;;;;;;8.23;3.03;;;;;;;6.64;100.00;97078.53;5038090;28;20067;-90
2023/03/13 03:36:48;;;;;;;8.07;2.83;;;;;;;6.56;100.00;97060.94;5037660;28;20049;-90
2023/03/13 03:39:15;;;;;;;6.68;2.35;;;;;;;6.33;100.00;97012.56;5038182;28;20398;-91
2023/03/13 03:41:41;;;;;;;6.80;2.33;;;;;;;6.62;100.00;97028.41;5026644;28;20059;-90
2023/03/13 03:44:08;;;;;;;5.82;2.15;;;;;;;6.56;100.00;97013.34;5036506;28;20495;-91
2023/03/13 03:46:35;;;;;;;5.63;2.08;;;;;;;6.56;100.00;97001.16;5038379;28;20489;-91
2023/03/13 03:49:02;;;;;;;5.47;2.03;;;;;;;6.51;100.00;96987.69;5038004;28;20156;-90
2023/03/13 03:51:28;;;;;;;6.90;2.25;;;;;;;6.49;100.00;96973.19;5039304;28;20484;-90
2023/03/13 03:53:55;;;;;;;6.68;2.08;;;;;;;6.60;100.00;96983.53;5037615;28;20049;-90
2023/03/13 03:56:22;;;;;;;6.70;2.30;;;;;;;6.53;100.00;96967.59;5049260;28;20480;-90
2023/03/13 03:58:49;;;;;;;5.28;2.03;;;;;;;6.69;100.00;96994.97;5030382;28;20049;-91
2023/03/13 04:01:15;;;;;;;5.35;2.03;;;;;;;6.35;100.00;96937.94;5024227;28;20053;-90
2023/03/13 04:03:42;;;;;;;5.38;1.98;;;;;;;6.54;100.00;96951.06;5025053;28;20060;-89
2023/03/13 04:06:09;;;;;;;6.40;2.20;;;;;;;6.52;100.00;96952.16;5034044;28;20128;-90
2023/03/13 04:08:36;;;;;;;5.88;2.10;;;;;;;6.43;100.00;96915.56;5028074;28;20052;-89
2023/03/13 04:11:02;;;;;;;7.10;2.15;;;;;;;6.53;100.00;96933.81;5053512;28;20053;-89
2023/03/13 04:13:29;;;;;;;6.60;2.22;;;;;;;6.43;100.00;96894.78;5028797;28;20468;-88
2023/03/13 04:15:56;;;;;;;6.22;2.30;;;;;;;6.37;100.00;96878.88;5027396;28;20048;-88
2023/03/13 04:18:23;;;;;;;4.88;1.95;;;;;;;6.51;100.00;96891.53;5039018;28;20163;-89
2023/03/13 04:20:49;;;;;;;5.55;1.80;;;;;;;6.70;100.00;96910.84;5038217;28;20045;-88
2023/03/13 04:23:16;;;;;;;6.10;2.13;;;;;;;6.32;100.00;96853.28;5017103;28;20049;-89
2023/03/13 04:25:43;;;;;;;5.90;2.08;;;;;;;6.34;100.00;96845.34;5029468;28;20487;-88
2023/03/13 04:28:09;;;;;;;4.80;1.77;;;;;;;6.45;100.00;96847.88;5036847;28;20475;-89
2023/03/13 04:30:36;;;;;;;6.65;2.45;;;;;;;6.47;100.00;96844.19;5021942;28;20048;-88
2023/03/13 04:33:03;;;;;;;6.32;2.40;;;;;;;6.20;100.00;96794.53;5036905;28;20095;-89
2023/03/13 04:35:31;;;;;;;5.53;2.38;;;;;;;6.33;100.00;96784.75;5034133;28;20080;-89
2023/03/13 04:37:59;;;;;;;4.50;1.63;;;;;;;6.47;100.00;96794.00;5036012;28;20121;-89
2023/03/13 04:40:26;;;;;;;9.27;2.78;;;;;;;6.30;100.00;96773.81;5035705;28;20475;-89
2023/03/13 04:42:53;;;;;;;7.70;2.72;;;;;;;6.46;100.00;96780.19;5037689;28;20041;-89
2023/03/13 04:45:20;;;;;;;8.95;2.45;;;;;;;6.80;100.00;96829.34;5054433;28;20056;-89
2023/03/13 04:47:46;;;;;;;7.68;2.53;;;;;;;6.34;100.00;96755.25;5036805;28;20053;-89
2023/03/13 04:50:14;;;;;;;5.70;2.05;;;;;;;6.74;100.00;96800.44;5028013;28;20042;-88
2023/03/13 04:52:40;;;;;;;7.53;2.28;;;;;;;6.76;100.00;96791.53;5026878;28;20119;-86
2023/03/13 04:55:08;;;;;;;5.55;2.30;;;;;;;6.80;100.00;96790.34;5028988;28;20049;-87
2023/03/13 04:57:34;;;;;;;4.97;1.77;;;;;;;6.57;100.00;96740.31;5028535;28;20069;-87
2023/03/13 05:00:04;;;;;;;5.25;2.10;;;;;;;6.65;100.00;96745.66;5039446;28;20476;-91
2023/03/13 05:02:30;;;;;;;7.05;2.10;;;;;;;6.42;100.00;96687.84;5029211;28;20053;-87
2023/03/13 05:04:57;;;;;;;5.72;2.08;;;;;;;6.75;100.00;96730.13;5040152;28;20052;-90
2023/03/13 05:07:24;;;;;;;7.07;1.80;;;;;;;6.61;100.00;96710.50;5037146;28;20045;-90
2023/03/13 05:09:51;;;;;;;4.43;1.65;;;;;;;6.65;100.00;96687.66;5037321;28;20407;-91
2023/03/13 05:12:17;;;;;;;4.45;1.55;;;;;;;6.95;100.00;96722.38;5055119;28;20110;-91
2023/03/13 05:14:44;;;;;;;3.35;1.38;;;;;;;6.73;100.00;96685.25;5036976;28;20053;-90
2023/03/13 05:17:13;;;;;;;3.80;1.50;;;;;;;6.70;100.00;96675.09;5036955;28;20048;-90
2023/03/13 05:19:39;;;;;;;2.90;1.30;;;;;;;6.94;100.00;96708.56;5036583;28;20049;-90
2023/03/13 05:22:06;;;;;;;4.72;1.50;;;;;;;6.93;100.00;96696.50;5036938;28;20053;-91
2023/03/13 05:24:33;;;;;;;3.17;1.30;;;;;;;6.89;100.00;96692.53;5054431;28;20060;-91
2023/03/13 05:27:01;;;;;;;3.30;1.30;;;;;;;7.20;100.00;96721.03;5036582;28;20056;-91
2023/03/13 05:29:28;;;;;;;4.95;1.20;;;;;;;7.00;100.00;96686.38;5036950;28;20052;-92
2023/03/13 05:31:54;;;;;;;2.95;1.20;;;;;;;6.61;100.00;96616.94;5036990;28;20056;-90
2023/03/13 05:34:21;;;;;;;3.95;1.30;;;;;;;6.82;100.00;96640.22;5037175;28;20060;-92
2023/03/13 05:36:48;;;;;;;3.85;1.33;;;;;;;6.86;100.00;96652.97;5036769;28;20051;-91
2023/03/13 05:39:15;;;;;;;2.88;1.20;;;;;;;6.64;100.00;96606.28;5036769;28;20060;-91
2023/03/13 05:41:42;;;;;;;2.95;1.38;;;;;;;7.03;100.00;96660.94;5036581;28;20057;-91
2023/03/13 05:44:08;;;;;;;3.20;1.20;;;;;;;6.81;100.00;96628.19;5036166;28;20074;-90
2023/03/13 05:46:35;;;;;;;4.60;1.42;;;;;;;6.81;100.00;96632.56;5036282;28;20052;-92
2023/03/13 05:49:02;;;;;;;4.18;1.40;;;;;;;6.90;100.00;96644.75;5054495;28;20140;-92
2023/03/13 05:51:29;;;;;;;3.58;1.40;;;;;;;6.73;100.00;96635.84;5037426;28;20049;-94
2023/03/13 05:53:55;;;;;;;4.68;1.42;;;;;;;6.84;100.00;96658.31;5037426;28;20048;-93
2023/03/13 05:56:22;;;;;;;3.00;1.27;;;;;;;6.59;100.00;96608.44;5037156;28;20045;-92
2023/03/13 05:58:49;;;;;;;2.70;1.30;;;;;;;6.81;100.00;96638.56;5038116;28;20049;-93
2023/03/13 06:01:16;;;;;;;3.50;1.45;;;;;;;6.72;100.00;96622.97;5031690;28;20487;-88
2023/03/13 06:03:42;;;;;;;3.63;1.40;;;;;;;6.79;100.00;96635.28;5035793;28;20049;-90
2023/03/13 06:06:09;;;;;;;3.00;1.40;;;;;;;6.62;100.00;96629.00;5035944;28;20106;-89
2023/03/13 06:08:36;;;;;;;2.95;1.33;;;;;;;6.54;100.00;96617.59;5035812;28;20052;-89
2023/03/13 06:11:03;;;;;;;3.22;1.50;;;;;;;6.49;100.00;96641.38;5035116;28;20437;-89
2023/03/13 06:13:30;;;;;;;3.42;1.40;;;;;;;6.49;100.00;96620.59;5036020;28;20063;-90
2023/03/13 06:15:57;;;;;;;4.65;1.30;;;;;;;6.38;100.00;96613.72;5036345;28;20049;-90
2023/03/13 06:18:24;;;;;;;3.72;1.40;;;;;;;6.44;100.00;96596.78;5036020;28;20080;-91
2023/03/13 06:20:57;;;;;;;2.45;1.30;;;;;;;6.70;100.00;96624.91;5029861;28;20052;-94
2023/03/13 06:23:24;;;;;;;4.60;1.58;;;;;;;6.45;100.00;96572.47;5035895;28;20052;-93
2023/03/13 06:25:51;;;;;;;2.28;1.30;;;;;;;6.56;100.00;96502.16;5035832;28;20438;-88
2023/03/13 06:28:18;;;;;;;4.72;1.50;;;;;;;6.48;100.00;96447.47;5024514;28;20475;-89
2023/03/13 06:30:45;;;;;;;3.92;1.40;;;;;;;6.42;100.00;96490.38;5037042;28;20060;-92
2023/03/13 06:33:12;;;;;;;3.90;1.60;;;;;;;6.10;100.00;96490.63;5036737;28;20403;-91
2023/03/13 06:35:40;;;;;;;2.83;1.45;;;;;;;6.36;100.00;96531.69;5050266;28;20045;-92
2023/03/13 06:38:23;;;;;;;3.15;1.35;;;;;;;6.61;100.00;96562.34;5039633;28;20060;-93
2023/03/13 06:40:50;;;;;;;2.65;1.30;;;;;;;6.26;100.00;96531.66;5032499;28;20045;-91
2023/03/13 06:43:17;;;;;;;2.95;1.40;;;;;;;6.27;100.00;96543.72;5017048;28;20053;-94
2023/03/13 06:45:44;;;;;;;4.05;1.40;;;;;;;6.54;100.00;96552.66;5036500;28;20060;-90
2023/03/13 06:48:11;;;;;;;3.53;1.38;;;;;;;6.44;100.00;96526.63;5037169;28;20494;-89
2023/03/13 06:50:39;;;;;;;4.78;1.60;;;;;;;6.67;100.00;96549.78;5037997;28;20049;-89
2023/03/13 06:53:05;;;;;;;5.93;1.75;;;;;;;6.38;100.00;96529.78;5037032;28;20049;-89
2023/03/13 06:55:32;;;;;;;5.00;1.75;;;;;;;6.38;100.00;96516.78;5025164;28;20045;-90
2023/03/13 06:57:59;;;;;;;7.28;1.90;;;;;;;6.28;100.00;96498.56;5017691;28;20045;-92
2023/03/13 07:00:26;;;;;;;5.30;1.52;;;;;;;6.37;100.00;96489.16;5018281;28;20395;-92
2023/03/13 07:02:53;;;;;;;3.28;1.50;;;;;;;6.52;100.00;96494.78;5016813;28;20049;-91
2023/03/13 07:05:20;;;;;;;5.13;1.90;;;;;;;6.48;100.00;96491.66;5034961;28;20505;-90
2023/03/13 07:07:46;;;;;;;4.18;1.65;;;;;;;6.33;100.00;96482.59;5036462;28;20041;-92
2023/03/13 07:10:13;;;;;;;5.72;1.73;;;;;;;6.18;100.00;96477.81;5052806;28;20052;-92
2023/03/13 07:12:40;;;;;;;3.80;1.52;;;;;;;6.19;100.00;96456.06;5037060;28;20056;-92
2023/03/13 07:15:07;;;;;;;6.60;1.55;;;;;;;6.70;100.00;96520.91;5036256;28;20075;-93
2023/03/13 07:17:34;;;;;;;3.70;1.35;;;;;;;6.59;100.00;96490.69;5035964;28;20049;-92
2023/03/13 07:20:01;;;;;;;3.67;1.40;;;;;;;6.50;100.00;96487.13;5052658;28;20052;-92
2023/03/13 07:22:28;;;;;;;4.40;1.10;;;;;;;6.43;100.00;96488.63;5041340;28;20049;-94
2023/03/13 07:24:55;;;;;;;4.57;1.30;;;;;;;6.43;100.00;96471.25;5039589;28;20049;-90
2023/03/13 07:27:22;;;;;;;3.72;1.30;;;;;;;6.55;100.00;96491.91;5030201;28;20049;-87
2023/03/13 07:29:49;;;;;;;3.88;1.35;;;;;;;6.46;100.00;96485.75;5054835;28;20048;-90
2023/03/13 07:32:15;;;;;;;2.88;1.23;;;;;;;6.73;100.00;96500.66;5034146;28;20052;-89
2023/03/13 07:34:45;;;;;;;2.92;1.15;;;;;;;6.53;100.00;96476.44;5040269;28;20048;-90
2023/03/13 07:37:13;;;;;;;4.10;1.77;;;;;;;6.73;100.00;96498.06;5036941;28;20064;-90
2023/03/13 07:39:41;;;;;;;5.45;1.50;;;;;;;6.73;100.00;96494.63;5037134;28;20552;-90
2023/03/13 07:42:12;;;;;;;3.70;1.50;;;;;;;6.92;100.00;96512.00;5031722;28;20383;-90
2023/03/13 07:44:39;;;;;;;3.65;1.55;;;;;;;6.65;100.00;96495.31;5038070;28;20048;-91
2023/03/13 07:47:05;;;;;;;4.60;1.58;;;;;;;6.91;100.00;96499.97;5037553;28;20060;-91
2023/03/13 07:49:32;;;;;;;6.38;1.88;;;;;;;6.66;100.00;96496.97;5032670;28;20068;-90
2023/03/13 07:51:59;;;;;;;3.38;1.60;;;;;;;6.79;100.00;96496.69;5028700;28;20049;-90
2023/03/13 07:54:26;;;;;;;7.05;1.60;;;;;;;6.55;100.00;96460.72;5051082;28;20060;-90
2023/03/13 07:56:52;;;;;;;6.43;1.85;;;;;;;6.58;100.00;96481.25;5036920;28;20057;-90
2023/03/13 07:59:19;;;;;;;4.80;1.90;;;;;;;6.59;100.00;96488.09;5035346;28;20046;-91
2023/03/13 08:01:46;;;;;;;7.25;1.85;;;;;;;6.40;100.00;96457.72;5031864;28;20487;-91
2023/03/13 08:04:13;;;;;;;4.95;1.95;;;;;;;6.38;100.00;96446.66;5025816;28;20060;-91
2023/03/13 08:06:40;;;;;;;7.45;2.00;;;;;;;6.43;100.00;96473.84;5054585;28;20044;-90
2023/03/13 08:09:08;;;;;;;7.47;1.90;;;;;;;6.50;100.00;96475.91;5037416;28;20060;-91
2023/03/13 08:11:43;;;;;;;5.30;1.70;;;;;;;6.71;100.00;96497.41;5029557;28;20099;-91
2023/03/13 08:14:10;;;;;;;6.00;1.63;;;;;;;6.60;100.00;96471.53;5053250;28;20061;-91
2023/03/13 08:16:37;;;;;;;4.93;1.60;;;;;;;6.44;100.00;96459.88;5034913;28;20056;-91
2023/03/13 08:19:04;;;;;;;5.57;1.77;;;;;;;6.67;100.00;96498.59;5036406;28;20053;-90
2023/03/13 08:21:34;;;;;;;7.90;2.53;;;;;;;6.64;100.00;96493.69;5029758;28;20182;-90
2023/03/13 08:24:06;;;;;;;6.47;2.88;;;;;;;6.50;100.00;96466.34;5035872;28;20059;-91
2023/03/13 08:26:35;;;;;;;5.82;2.00;;;;;;;6.80;100.00;96493.97;5022660;28;20059;-91
2023/03/13 08:29:08;;;;;;;6.75;2.00;;;;;;;6.52;100.00;96485.22;5036666;28;20049;-91
2023/03/13 08:31:46;;;;;;;8.75;2.60;;;;;;;6.42;100.00;96490.38;5032096;28;20044;-89
2023/03/13 08:34:15;;;;;;;6.30;1.98;;;;;;;6.41;100.00;96480.97;5034975;28;20542;-90
2023/03/13 08:36:42;;;;;;;5.47;1.40;;;;;;;6.31;100.00;96458.53;5033354;28;20052;-89
2023/03/13 08:39:12;;;;;;;5.85;1.50;;;;;;;6.61;100.00;96509.56;5036725;28;20053;-89
2023/03/13 08:41:42;;;;;;;8.05;1.80;;;;;;;6.12;100.00;96467.13;5032691;28;20395;-89
2023/03/13 08:44:19;;;;;;;6.78;1.88;;;;;;;6.54;100.00;96531.84;5019564;28;20057;-89
2023/03/13 08:46:47;;;;;;;6.80;1.65;;;;;;;6.22;100.00;96525.91;5019504;28;20491;-90
2023/03/13 08:49:16;;;;;;;5.95;1.52;;;;;;;6.34;100.00;96529.22;5031705;28;20053;-89
2023/03/13 08:51:43;;;;;;;3.92;1.30;;;;;;;5.96;100.00;96483.22;5034674;28;20052;-90
2023/03/13 08:54:10;;;;;;;5.60;1.30;;;;;;;5.76;100.00;96462.38;5022200;28;20466;-90
2023/03/13 08:56:37;;;;;;;5.25;1.83;;;;;;;5.67;100.00;96460.56;5035458;28;20063;-91
2023/03/13 08:59:04;;;;;;;4.88;1.70;;;;;;;6.17;100.00;96522.91;5033455;28;20052;-90
2023/03/13 09:01:33;;;;;;;8.38;1.67;;;;;;;6.14;100.00;96528.34;5015719;28;20049;-90
2023/03/13 09:04:01;;;;;;;6.78;1.23;;;;;;;5.90;100.00;96518.28;5028885;28;20057;-90
2023/03/13 09:06:34;;;;;;;6.90;1.70;;;;;;;5.94;100.00;96519.66;5031850;28;20052;-89
2023/03/13 09:09:03;;;;;;;6.72;1.50;;;;;;;5.82;100.00;96497.34;5034688;28;20053;-90
2023/03/13 09:11:32;;;;;;;4.15;1.33;;;;;;;5.73;100.00;96503.34;5035019;28;20437;-89
2023/03/13 09:13:58;;;;;;;7.47;1.50;;;;;;;5.54;100.00;96504.88;5053079;28;20053;-89
2023/03/13 09:16:28;;;;;;;8.25;1.70;;;;;;;5.49;100.00;96504.47;5035088;28;20056;-89
2023/03/13 09:18:55;;;;;;;8.02;1.83;;;;;;;5.56;100.00;96538.50;5035345;28;20557;-89
2023/03/13 09:21:25;;;;;;;5.32;1.42;;;;;;;5.76;100.00;96562.78;5044240;28;20475;-88
2023/03/13 09:23:52;;;;;;;9.05;1.80;;;;;;;5.31;100.00;96536.19;5035363;28;20510;-88
2023/03/13 09:26:20;;;;;;;7.72;1.80;;;;;;;5.36;100.00;96556.53;5021436;28;20407;-89
2023/03/13 09:28:50;;;;;;;5.60;1.52;;;;;;;5.30;100.00;96575.22;5035159;28;20049;-89
2023/03/13 09:31:28;;;;;;;6.85;1.92;;;;;;;5.07;100.00;96538.22;5033621;28;20049;-89
2023/03/13 09:33:56;;;;;;;11.32;1.90;;;;;;;5.25;100.00;96582.56;5039244;28;20406;-89
2023/03/13 09:36:23;;;;;;;9.52;2.13;;;;;;;4.90;100.00;96566.31;5035916;28;20056;-89
2023/03/13 09:38:52;;;;;;;9.63;1.80;;;;;;;5.19;100.00;96578.69;5034884;28;20099;-90
2023/03/13 09:41:52;;;;;;;10.63;2.42;;;;;;;5.25;100.00;96618.88;5034128;28;20048;-90
2023/03/13 09:44:22;;;;;;;9.48;2.33;;;;;;;5.29;100.00;96612.47;5034651;28;20051;-90
2023/03/13 09:47:02;;;;;;;6.68;1.58;;;;;;;5.08;100.00;96618.47;5042096;28;20522;-90
2023/03/13 09:49:41;;;;;;;5.72;1.60;;;;;;;5.09;100.00;96635.66;5033657;28;20060;-89
2023/03/13 09:52:15;;;;;;;5.45;1.52;;;;;;;4.97;100.00;96597.75;5032347;28;20056;-90
2023/03/13 09:55:01;;;;;;;7.18;2.00;;;;;;;5.02;100.00;96637.09;5033974;28;20045;-91
2023/03/13 09:57:35;;;;;;;7.50;1.70;;;;;;;4.82;100.00;96640.47;5029534;28;20091;-90
2023/03/13 10:00:13;;;;;;;5.70;1.50;;;;;;;4.62;100.00;96609.19;5035180;28;20048;-91
2023/03/13 10:02:46;;;;;;;6.55;1.40;;;;;;;4.62;100.00;96642.88;5016392;28;20423;-91
2023/03/13 10:05:16;;;;;;;6.47;1.48;;;;;;;4.75;100.00;96653.91;5016380;28;20505;-91
2023/03/13 10:07:43;;;;;;;11.20;1.98;;;;;;;4.79;100.00;96651.91;5026990;28;20046;-92
2023/03/13 10:10:20;;;;;;;4.78;1.40;;;;;;;4.78;100.00;96660.63;5053028;28;20060;-90
2023/03/13 10:12:51;;;;;;;6.03;1.52;;;;;;;4.38;100.00;96606.78;5029748;28;20045;-91
2023/03/13 10:15:26;;;;;;;5.32;1.45;;;;;;;4.61;100.00;96661.13;5031710;28;20049;-90
2023/03/13 10:17:53;;;;;;;5.32;1.40;;;;;;;4.56;100.00;96651.13;5021198;28;20049;-90
2023/03/13 10:20:24;;;;;;;3.08;1.20;;;;;;;4.39;100.00;96613.56;5033913;28;20475;-91
2023/03/13 10:22:58;;;;;;;5.28;1.40;;;;;;;4.13;100.00;96619.03;5029128;28;20053;-91
2023/03/13 10:25:34;;;;;;;4.18;1.42;;;;;;;4.07;100.00;96616.94;5028671;28;20045;-90
2023/03/13 10:28:01;;;;;;;6.43;1.20;;;;;;;4.15;100.00;96635.25;5029619;28;20055;-85
2023/03/13 10:30:31;;;;;;;4.75;1.20;;;;;;;4.61;100.00;96692.22;5050567;28;20052;-84
2023/03/13 10:33:19;;;;;;;8.45;1.45;;;;;;;4.46;100.00;96684.69;5033833;28;20475;-84
2023/03/13 10:35:59;;;;;;;4.47;1.25;;;;;;;4.32;100.00;96692.69;5049773;28;20061;-84
2023/03/13 10:38:26;;;;;;;3.50;1.33;;;;;;;3.99;100.00;96684.78;5051137;28;20072;-84
2023/03/13 10:40:58;;;;;;;3.83;1.30;;;;;;;4.28;100.00;96702.47;5033150;28;20053;-84
2023/03/13 10:43:26;;;;;;;4.75;1.38;;;;;;;4.23;100.00;96685.63;5034088;28;20057;-85
2023/03/13 10:45:53;;;;;;;3.28;2.10;;;;;;;4.23;100.00;96680.44;5051643;28;20048;-85
2023/03/13 10:48:23;;;;;;;3.63;1.10;;;;;;;4.21;100.00;96718.59;5028116;28;20566;-85
2023/03/13 10:50:53;;;;;;;3.20;1.40;;;;;;;4.27;100.00;96682.69;5017962;28;20371;-85
2023/03/13 10:53:37;;;;;;;2.65;1.20;;;;;;;4.19;100.00;96677.28;5051774;28;20060;-86
2023/03/13 10:56:33;;;;;;;4.07;1.30;;;;;;;4.29;100.00;96724.84;5047967;28;20589;-85
2023/03/13 10:59:00;;;;;;;5.80;1.48;;;;;;;4.52;100.00;96741.19;5011931;28;20048;-85
2023/03/13 11:01:32;;;;;;;3.60;1.10;;;;;;;4.36;100.00;96730.38;5049690;28;20482;-86
2023/03/13 11:04:18;;;;;;;3.78;1.15;;;;;;;4.69;100.00;96758.06;5033804;28;20132;-86
2023/03/13 11:07:02;;;;;;;4.50;1.20;;;;;;;4.42;100.00;96735.06;5055912;28;20475;-86
2023/03/13 11:09:29;;;;;;;3.83;1.55;;;;;;;4.36;100.00;96743.31;5024157;28;20100;-85
2023/03/13 11:12:04;;;;;;;4.70;1.40;;;;;;;4.59;100.00;96771.84;5036485;28;20056;-87
2023/03/13 11:14:31;;;;;;;5.72;1.35;;;;;;;4.55;100.00;96750.50;5025314;28;20502;-86
2023/03/13 11:17:37;;;;;;;5.55;1.35;;;;;;;4.82;100.00;96775.25;5030767;28;20050;-87
2023/03/13 11:20:07;;;;;;;5.25;1.20;;;;;;;4.86;100.00;96780.06;5015905;28;20049;-86
2023/03/13 11:22:34;;;;;;;7.82;2.58;;;;;;;4.61;100.00;96798.44;5035675;28;20509;-88
2023/03/13 11:25:22;;;;;;;5.35;1.40;;;;;;;4.76;100.00;96805.03;5031053;28;20049;-86
2023/03/13 11:28:32;;;;;;;4.03;1.50;;;;;;;4.63;100.00;96788.78;5025773;28;20050;-85
2023/03/13 11:31:07;;;;;;;7.15;1.40;;;;;;;4.70;100.00;96814.09;5043200;28;20478;-86
2023/03/13 11:33:46;;;;;;;8.05;1.70;;;;;;;4.71;100.00;96825.28;5023736;28;20154;-87
2023/03/13 11:36:15;;;;;;;7.60;2.88;;;;;;;4.89;100.00;96816.13;5036591;28;20045;-86
2023/03/13 11:38:48;;;;;;;8.13;1.70;;;;;;;4.51;100.00;96796.53;5031721;28;20123;-86
2023/03/13 11:41:31;;;;;;;5.88;1.60;;;;;;;4.77;100.00;96839.56;5052370;28;20045;-87
2023/03/13 11:44:13;;;;;;;8.73;1.60;;;;;;;4.93;100.00;96842.63;5053262;28;20044;-86